This is the latest recevied weather packets stored in our database for station/object WA2TQI. If no packets are shown the sender has not sent any weather packets the latest 1 day(s).
| Time | Temp. | Humidity | Pressure | Rain* | Wind** | Luminosity | Snow |
|---|---|---|---|---|---|---|---|
| 1778081679 | 20° C | 78% | 1010.9 hPa | 0 mm | - | - | - |
| 1778081073 | 20.56° C | 76% | 1010.8 hPa | 0 mm | - | - | - |
| 1778079862 | 21.11° C | 73% | 1010.7 hPa | 0 mm | - | - | - |
| 1778078953 | 21.11° C | 74% | 1011.1 hPa | 0 mm | - | - | - |
| 1778078649 | 20.56° C | 74% | 1011 hPa | 0 mm | - | - | - |
| 1778078348 | 20.56° C | 74% | 1011.2 hPa | 0 mm | - | - | - |
| 1778076836 | 21.11° C | 73% | 1010.9 hPa | 0 mm | - | - | - |
| 1778076534 | 21.11° C | 73% | 1011.1 hPa | 0 mm | - | - | - |
| 1778075624 | 20.56° C | 75% | 1010.9 hPa | 0 mm | - | - | - |
| 1778075017 | 20° C | 76% | 1010.9 hPa | 0 mm | - | - | - |
| 1778074411 | 20° C | 76% | 1010.8 hPa | 0 mm | - | - | - |
| 1778073805 | 20° C | 76% | 1010.9 hPa | 0 mm | - | - | - |
| 1778072896 | 20° C | 76% | 1011.1 hPa | 0 mm | - | - | - |
| 1778071687 | 20.56° C | 75% | 1011.2 hPa | 0 mm | - | - | - |
| 1778071081 | 20° C | 76% | 1011.2 hPa | 0 mm | - | - | - |
| 1778070173 | 20° C | 78% | 1011.1 hPa | 0 mm | - | - | - |
| 1778069871 | 19.44° C | 79% | 1011 hPa | 0 mm | - | - | - |
| 1778069568 | 19.44° C | 79% | 1011.2 hPa | 0 mm | - | - | - |
| 1778069265 | 19.44° C | 80% | 1011.1 hPa | 0 mm | - | - | - |
| 1778068963 | 18.33° C | 82% | 1011.2 hPa | 0 mm | - | - | - |
| 1778068056 | 18.33° C | 83% | 1011.2 hPa | 0 mm | - | - | - |
| 1778067753 | 18.33° C | 84% | 1011.3 hPa | 0 mm | - | - | - |
| 1778066240 | 18.33° C | 84% | 1011.2 hPa | 0 mm | - | - | - |
| 1778065634 | 18.33° C | 84% | 1011.4 hPa | 0 mm | - | - | - |
| 1778064424 | 17.78° C | 86% | 1011.2 hPa | 0 mm | - | - | - |
* Rain latest hour (hover to see other rain measurements)
** Current wind speed in m/s (hover to see current wind gust speed)